Shelby, NC

2:07 AM EDT on July 30, 2016 (GMT -0400)
2 mi. SSE Shelby | | Change Station

Elev 863 ft 35.25 °N, 81.52 °W | Updated 143 days ago

Partly Cloudy
Partly Cloudy
71 °F
Feels Like 71 °F
N
1
Wind Variable Wind from NNE
Gusts mph

Today
High -- | Low -- °F
--% Chance of Precip.
Yesterday
High -- | Low -- °F
Precip. -- in
Pressure 29.97 in
Visibility 10.0 miles
Clouds Clear
Dew Point 71 °F
Humidity 98%
Rainfall in
Snow Depth Not available.
6:33 AM 8:30 PM
Waning Crescent, 16% visible
METAR KEHO 300600Z AUTO 23003KT 10SM CLR 24/22 A2997 RMK AO2 T02360220
Pressure 29.97 in
Visibility 10.0 miles
Clouds Clear
Dew Point 71 °F
Humidity 98%
Rainfall in
Snow Depth Not available.
6:33 AM 8:30 PM
Waning Crescent, 16% visible
METAR KEHO 300600Z AUTO 23003KT 10SM CLR 24/22 A2997 RMK AO2 T02360220

10-Day Weather Forecast

Almanac

Astronomy

Jul. 30, 2016 Rise Set
Actual Time
Civil Twilight
Nautical Twilight
Astronomical Twilight
Moon
Length of Visible Light
Length of Day
Tomorrow will be .
, % of the Moon is Illuminated

Today's Extremes

State Highs State Lows

Community

WunderPhotos

Upload Photos

1,928,508 photos uploaded!

WunderBlog® & News

Nearby

Air Quality

  Air Quality AQ Index Pollutant
Not available.

Snow Depth

Station Depth Elevation

Earthquake Activity

City Distance Mag. Time & Date
Minimum magnitude displayed is 2.5.

Coastal Water Temperatures

Place Temperature

Stations

Nearby Weather Stations

Station Location Temp. Windchill Dew Point Humidity Wind Precip. Elev Updated Type
                   

Watches & Warnings

There are currently no watches in effect.